Pagrindinis puslapis
METAR-TAF:

METAR-TAF

Oro uostai :

Vesterosas, Švedija

platuma: 59-35N, ilguma: 016-38E, Aukštis: 6 m

Dabartinis oras

Ataskaita buvo paskelbta 14 minutes, ne 10:50 UTC
Vėjas 12 kt iš Pietų/Pietvakarių
Temperatūra 19°C
Drėgmė 56%
Slėgis 1024 hPa
Matomumas 10 km arba daugiau
Išsisklaidę debesys ne aukštis 3500 ft

METAR: ESOW 221050Z 21012KT 9999 SCT035 19/10 Q1024

Laikas: 13:04 (11:04 UTC)

Prognozė

Ataskaita buvo paskelbta 2 valandos ir 34 minutes, ne 08:30 UTC
Prognozė galioja nuo 22 metu 09 UTC su 22 metu 13 UTC
Vėjas 8 kt iš Pietvakarių
Matomumas 10 km arba daugiau
Išsisklaidę debesys ne aukštis 3000 ft

TAF: ESOW 220830Z 2209/2213 23008KT 9999 SCT030

Orai ataskaitas ir orų prognozės (METAR, TAF).

turimą stotys yra geltonos ir raudonos taškus žemėlapyje.

Perkelti pele per norėdami pamatyti stoties vardą.

Tada spustelėkite, norėdami matyti oro stebėjimo ir prognozės.

Norėdami pakeisti žemėlapį: spustelėkite ant žalios mygtukų su juodo kryžiaus žemyn,; žalią mygtuką su brūkšneliu, jei norite nutolinti; arba žalių rodyklių gretimoms žemėlapius.


METAR-TAF: